Flag for India

Past Weather in Tiruchirappalli, Tamil Nadu, India — Yesterday and Last 2 Weeks

Currently: 68 °F. Fog. (Weather station: Tiruchchirapalli, India). See more current weather

Past Weather in Tiruchirappalli — Graph

°F

Tiruchirappalli Temperature Yesterday

Maximum temperature yesterday: 88 °F (at 4:30 pm)
Minimum temperature yesterday: 68 °F (at 6:00 am)
Average temperature yesterday: 76 °F

High & Low Weather Summary for the Past Weeks

 TemperatureHumidityPressure
High90 °F (Jan 21, 2:30 pm)100% (Jan 13, 8:30 am)29.98 "Hg (Jan 13, 8:30 am)
Low66 °F (Jan 18, 5:30 am)46% (Jan 24, 2:30 pm)29.77 "Hg (Jan 14, 3:30 pm)
Average78 °F81%29.89 "Hg
* Reported Jan 13 4:30 am — Jan 28 4:30 am, Tiruchirappalli. Weather by CustomWeather, © 2021

Note: Actual official high and low records may vary slightly from our data, if they occured in-between our weather recording intervals... More about our weather records

Tiruchirappalli Weather History for the Previous 24 Hours

Scroll right to see more
 ConditionsComfort  
Time TempWeatherWind HumidityBarometerVisibility
4:30 am
Thu, Jan 28
68 °FFog.3 mph94%29.89 "Hg1 mi
3:30 am68 °FFog.3 mph94%29.89 "Hg2 mi
2:30 am70 °FFog.5 mph88%29.92 "Hg2 mi
1:30 am72 °FFog.3 mph83%29.92 "Hg2 mi
12:30 am72 °FFog.2 mph83%29.92 "Hg2 mi
11:30 pm
Wed, Jan 27
73 °FFog.3 mph78%29.92 "Hg2 mi
11:00 pm75 °FFog.3 mph74%29.95 "Hg2 mi
10:30 pm75 °FFog.6 mph74%29.95 "Hg2 mi
10:00 pm75 °FHaze.6 mph74%29.95 "Hg2 mi
9:30 pm75 °FHaze.6 mph74%29.95 "Hg2 mi
9:00 pm77 °FHaze.5 mph69%29.92 "Hg2 mi
8:30 pm79 °FHaze.9 mph61%29.92 "Hg2 mi
8:00 pm81 °FPassing clouds.7 mph66%29.92 "Hg2 mi
7:30 pm82 °FPassing clouds.8 mph62%29.92 "Hg2 mi
6:30 pm82 °FScattered clouds.7 mph58%29.89 "Hg3 mi
6:00 pm84 °FScattered clouds.8 mph55%29.86 "Hg3 mi
5:30 pm84 °FScattered clouds.9 mph55%29.86 "Hg3 mi
4:30 pm88 °FScattered clouds.8 mph49%29.86 "Hg3 mi
3:30 pm86 °FScattered clouds.9 mph52%29.86 "Hg3 mi
2:30 pm86 °FScattered clouds.10 mph55%29.89 "Hg3 mi
1:30 pm86 °FScattered clouds.9 mph55%29.89 "Hg3 mi
12:30 pm84 °FScattered clouds.9 mph58%29.92 "Hg2 mi
11:30 am82 °FScattered clouds.9 mph62%29.95 "Hg2 mi
10:30 am77 °FFog.9 mph74%29.98 "Hg1 mi
10:00 am75 °FFog.9 mph78%29.98 "Hg1 mi
9:30 am73 °FFog.9 mph83%29.98 "Hg1 mi
9:00 am73 °FFog.9 mph83%29.95 "Hg1 mi
8:30 am72 °FFog.9 mph88%29.95 "Hg1 mi
8:00 am72 °FFog.6 mph83%29.95 "Hg1 mi
7:30 am72 °FFog.5 mph83%29.92 "Hg1 mi
7:00 am70 °FFog.5 mph88%29.92 "Hg1 mi
6:30 am68 °FFog.5 mph94%29.92 "Hg1 mi
6:00 am68 °FFog.5 mph94%29.89 "Hg2 mi
5:30 am70 °FFog.5 mph88%29.89 "Hg2 mi
5:00 am70 °FFog.2 mph88%29.89 "Hg2 mi
Weather by CustomWeather, © 2021

See weather overview